Time;durP1;ratioP1;P1;durP2;ratioP2;P2;SDS_P1;SDS_P2;PMS_P1;PMS_P2;Temp;Humidity;BMP_temperature;BMP_pressure;BME280_temperature;BME280_humidity;BME280_pressure;Samples;Min_cycle;Max_cycle;Signal;HPM_P1;HPM_P2
2021/05/19 00:01:02;;;;;;;2.28;0.80;;;;;;;24.64;25.06;94227.06;5074653;28;20056;-40
2021/05/19 00:03:29;;;;;;;3.10;0.90;;;;;;;24.06;25.97;94228.75;5074590;28;20056;-40
2021/05/19 00:05:57;;;;;;;1.98;1.00;;;;;;;25.14;24.73;94223.34;5074406;28;20371;-39
2021/05/19 00:08:24;;;;;;;2.45;1.08;;;;;;;25.38;24.56;94232.50;5073277;28;20047;-41
2021/05/19 00:10:51;;;;;;;3.13;0.80;;;;;;;25.61;24.34;94229.44;5073281;28;20052;-40
2021/05/19 00:13:18;;;;;;;1.48;0.80;;;;;;;23.89;26.17;94226.75;5074490;28;20047;-40
2021/05/19 00:15:45;;;;;;;1.83;0.80;;;;;;;24.20;25.92;94217.34;5077230;28;20041;-39
2021/05/19 00:18:13;;;;;;;3.15;0.80;;;;;;;24.07;26.02;94229.50;5094807;28;20453;-40
2021/05/19 00:20:41;;;;;;;4.13;1.00;;;;;;;24.70;25.65;94228.22;5072000;28;20339;-40
2021/05/19 00:23:08;;;;;;;2.75;1.25;;;;;;;25.29;25.37;94229.47;5094674;28;20055;-41
2021/05/19 00:25:36;;;;;;;2.13;0.80;;;;;;;24.62;26.50;94226.66;5094615;28;20047;-39
2021/05/19 00:28:04;;;;;;;1.73;0.90;;;;;;;24.62;26.17;94226.66;5094554;28;20137;-39
2021/05/19 00:30:35;;;;;;;5.80;1.20;;;;;;;24.94;25.91;94222.13;5094054;28;20447;-40
2021/05/19 00:33:02;;;;;;;2.50;0.93;;;;;;;23.99;27.05;94218.81;5094371;28;20447;-39
2021/05/19 00:35:29;;;;;;;5.50;1.30;;;;;;;23.79;27.43;94214.88;5094443;28;20052;-40
2021/05/19 00:37:57;;;;;;;2.60;1.13;;;;;;;23.60;27.70;94212.47;5061749;28;20363;-39
2021/05/19 00:40:24;;;;;;;2.60;1.23;;;;;;;23.87;27.68;94219.09;5093898;28;20044;-39
2021/05/19 00:42:52;;;;;;;3.55;1.35;;;;;;;23.79;27.55;94220.22;5094108;28;20051;-39
2021/05/19 00:45:20;;;;;;;3.22;1.50;;;;;;;23.97;27.50;94226.41;5088823;28;20040;-40
2021/05/19 00:47:48;;;;;;;5.00;1.65;;;;;;;22.99;28.97;94221.91;5088636;28;20060;-40
2021/05/19 00:50:20;;;;;;;5.85;1.92;;;;;;;23.32;28.82;94221.03;5093950;28;20040;-40
2021/05/19 00:52:48;;;;;;;3.58;1.95;;;;;;;24.23;27.13;94221.94;5076216;28;20064;-40
2021/05/19 00:55:15;;;;;;;9.55;2.15;;;;;;;23.94;27.48;94227.16;5082643;28;20045;-40
2021/05/19 00:57:43;;;;;;;6.07;2.30;;;;;;;24.08;27.08;94225.69;5087501;28;20398;-40
2021/05/19 01:00:15;;;;;;;5.72;2.72;;;;;;;23.56;27.75;94228.47;5076306;28;20044;-39
2021/05/19 01:03:05;;;;;;;6.78;2.45;;;;;;;24.57;26.73;94225.91;5094009;28;20059;-41
2021/05/19 01:05:47;;;;;;;5.95;2.90;;;;;;;23.20;28.67;94234.66;5075104;28;20059;-40
2021/05/19 01:11:23;;;;;;;10.30;3.00;;;;;;;22.70;29.32;94232.28;5020957;28;20053;-40
2021/05/19 01:13:51;;;;;;;5.53;2.83;;;;;;;24.20;27.61;94228.81;5032070;28;20096;-40
2021/05/19 01:16:18;;;;;;;9.85;3.65;;;;;;;24.16;27.21;94221.91;5035894;28;20067;-40
2021/05/19 01:18:45;;;;;;;6.63;3.20;;;;;;;24.37;27.17;94219.34;5094074;28;20092;-40
2021/05/19 01:21:12;;;;;;;6.35;3.40;;;;;;;24.63;26.59;94222.84;5093815;28;20043;-40
2021/05/19 01:23:40;;;;;;;7.10;2.90;;;;;;;23.36;28.27;94225.22;5074093;28;20380;-39
2021/05/19 01:26:10;;;;;;;7.22;3.53;;;;;;;24.18;26.83;94217.72;5073919;28;20470;-39
2021/05/19 01:28:41;;;;;;;8.25;3.35;;;;;;;24.31;27.02;94233.44;5094057;28;20055;-41
2021/05/19 01:31:10;;;;;;;8.02;3.10;;;;;;;24.10;27.39;94224.19;5075666;28;20052;-41
2021/05/19 01:33:39;;;;;;;6.85;3.35;;;;;;;22.98;28.77;94220.38;5076381;28;20051;-41
2021/05/19 01:36:06;;;;;;;6.55;3.17;;;;;;;22.75;29.37;94223.94;5092606;28;20063;-43
2021/05/19 01:38:35;;;;;;;8.65;3.40;;;;;;;22.17;30.13;94220.28;5074787;28;20465;-40
2021/05/19 01:41:03;;;;;;;8.27;3.28;;;;;;;22.88;29.07;94221.78;5094858;28;20059;-41
2021/05/19 01:43:35;;;;;;;5.15;2.97;;;;;;;23.42;27.82;94219.56;5076189;28;20044;-39
2021/05/19 01:46:12;;;;;;;9.13;3.50;;;;;;;22.28;29.69;94229.13;5077087;28;20063;-44
2021/05/19 01:48:39;;;;;;;8.65;3.75;;;;;;;23.01;28.85;94225.72;5096836;28;20060;-45
2021/05/19 01:51:07;;;;;;;7.97;3.65;;;;;;;23.18;28.68;94223.59;5097020;28;20071;-40
2021/05/19 01:53:35;;;;;;;7.88;3.63;;;;;;;23.87;27.80;94232.44;5097414;28;20331;-41
2021/05/19 01:56:02;;;;;;;8.55;3.97;;;;;;;24.21;27.10;94240.25;5062897;28;20450;-40
2021/05/19 01:58:36;;;;;;;9.95;3.80;;;;;;;23.93;27.51;94233.63;5060218;28;20051;-42
2021/05/19 02:01:06;;;;;;;7.55;3.40;;;;;;;23.60;28.20;94223.13;5042316;28;20056;-39
2021/05/19 02:03:33;;;;;;;7.00;3.28;;;;;;;23.10;28.66;94228.06;5076953;28;20052;-40
2021/05/19 02:06:13;;;;;;;8.95;3.50;;;;;;;22.24;29.96;94225.66;5082813;28;20457;-46
2021/05/19 02:08:40;;;;;;;9.07;3.42;;;;;;;22.02;30.61;94220.06;5095059;28;20055;-44
2021/05/19 02:11:13;;;;;;;9.00;3.67;;;;;;;22.75;29.24;94218.63;5096575;28;20052;-40
2021/05/19 02:13:40;;;;;;;7.88;3.95;;;;;;;21.63;31.29;94213.47;5096796;28;20040;-42
2021/05/19 02:16:11;;;;;;;9.23;3.30;;;;;;;22.27;29.96;94224.94;5079016;28;20060;-41
2021/05/19 02:18:44;;;;;;;9.20;3.55;;;;;;;22.46;29.49;94217.56;5078704;28;20446;-39
2021/05/19 02:21:12;;;;;;;11.25;3.92;;;;;;;22.23;29.92;94213.50;5078523;28;20055;-39
2021/05/19 02:23:47;;;;;;;8.85;3.88;;;;;;;21.80;30.82;94212.94;5079256;28;20062;-40
2021/05/19 02:26:14;;;;;;;9.30;3.80;;;;;;;22.04;30.07;94206.41;5078940;28;20048;-39
2021/05/19 02:28:42;;;;;;;9.20;3.90;;;;;;;22.34;29.91;94209.03;5078699;28;20077;-50
2021/05/19 02:31:10;;;;;;;7.03;3.85;;;;;;;22.07;30.10;94206.47;5078266;28;20051;-39
2021/05/19 02:33:37;;;;;;;9.50;3.55;;;;;;;21.68;30.69;94199.84;5079026;28;20442;-40
2021/05/19 02:36:07;;;;;;;7.10;3.70;;;;;;;22.28;29.85;94202.50;5078616;28;20062;-40
2021/05/19 02:38:35;;;;;;;6.18;3.08;;;;;;;22.54;29.50;94202.41;5067237;28;20088;-40
2021/05/19 02:41:03;;;;;;;5.90;2.75;;;;;;;22.69;28.93;94182.78;5095926;28;20374;-39
2021/05/19 02:43:30;;;;;;;5.45;2.78;;;;;;;22.56;29.18;94186.06;5096261;28;20062;-40
2021/05/19 02:45:58;;;;;;;4.43;2.53;;;;;;;22.58;28.85;94176.56;5078551;28;20450;-40
2021/05/19 02:48:25;;;;;;;6.82;2.63;;;;;;;22.51;29.02;94181.84;5080340;28;20059;-43
2021/05/19 02:50:53;;;;;;;4.60;2.22;;;;;;;21.29;31.16;94184.09;5075392;28;20530;-40
2021/05/19 02:53:20;;;;;;;3.25;1.95;;;;;;;21.35;30.60;94187.25;5074829;28;20412;-40
2021/05/19 02:55:47;;;;;;;5.55;2.10;;;;;;;21.44;30.56;94191.16;5076015;28;20049;-41
2021/05/19 02:58:14;;;;;;;5.05;2.60;;;;;;;21.89;29.80;94192.16;5089838;28;20336;-43
2021/05/19 03:00:41;;;;;;;6.38;2.00;;;;;;;22.11;29.97;94196.59;5095441;28;20079;-40
2021/05/19 03:03:09;;;;;;;3.42;2.22;;;;;;;22.01;30.13;94194.56;5095103;28;20052;-40
2021/05/19 03:05:36;;;;;;;6.63;2.10;;;;;;;21.11;31.61;94209.63;5094124;28;20044;-40
2021/05/19 03:08:03;;;;;;;4.68;2.20;;;;;;;22.30;29.71;94213.56;5085501;28;20040;-39
2021/05/19 03:10:33;;;;;;;6.25;2.78;;;;;;;22.46;29.47;94217.56;5095302;28;20052;-41
2021/05/19 03:13:04;;;;;;;5.68;2.72;;;;;;;22.27;29.64;94214.28;5057566;28;20060;-40
2021/05/19 03:15:32;;;;;;;5.15;2.50;;;;;;;22.50;29.26;94220.25;5089266;28;20370;-40
2021/05/19 03:18:00;;;;;;;4.68;2.70;;;;;;;22.34;29.39;94217.03;5095341;28;20059;-39
2021/05/19 03:20:28;;;;;;;5.25;2.78;;;;;;;22.35;29.53;94215.91;5084828;28;20048;-40
2021/05/19 03:22:55;;;;;;;4.72;2.38;;;;;;;23.26;28.24;94212.59;5075133;28;20142;-41
2021/05/19 03:25:22;;;;;;;4.80;2.70;;;;;;;23.37;28.05;94221.44;5074972;28;20048;-52
2021/05/19 03:27:49;;;;;;;10.07;2.97;;;;;;;23.02;28.73;94215.84;5075023;28;20052;-40
2021/05/19 03:30:17;;;;;;;6.32;3.05;;;;;;;21.31;31.48;94219.06;5074974;28;20467;-40
2021/05/19 03:32:45;;;;;;;4.72;3.10;;;;;;;22.28;30.01;94221.16;5074812;28;20059;-40
2021/05/19 03:35:12;;;;;;;5.53;3.00;;;;;;;21.30;31.55;94224.75;5074794;28;20052;-39
2021/05/19 03:37:40;;;;;;;7.88;3.40;;;;;;;21.85;30.90;94216.03;5092879;28;20043;-40
2021/05/19 03:40:11;;;;;;;6.20;2.95;;;;;;;22.68;29.49;94213.22;5087285;28;20036;-43
2021/05/19 03:42:39;;;;;;;10.73;3.40;;;;;;;22.92;29.01;94229.84;5073640;28;20344;-44
2021/05/19 03:45:09;;;;;;;9.77;2.90;;;;;;;22.34;29.88;94217.78;5086039;28;20075;-56
2021/05/19 03:47:36;;;;;;;4.95;3.15;;;;;;;22.56;29.96;94226.78;5095255;28;20051;-40
2021/05/19 03:50:06;;;;;;;4.57;3.20;;;;;;;22.95;28.93;94221.13;5094876;28;20070;-41
2021/05/19 03:52:33;;;;;;;6.18;2.72;;;;;;;21.58;31.08;94211.09;5095024;28;20324;-39
2021/05/19 03:55:00;;;;;;;7.15;2.90;;;;;;;21.92;30.86;94215.38;5094528;28;20048;-39
2021/05/19 03:57:29;;;;;;;6.80;2.55;;;;;;;22.77;29.17;94213.69;5089599;28;20063;-40
2021/05/19 03:59:56;;;;;;;5.38;2.80;;;;;;;23.53;29.13;94215.84;5079395;28;20048;-40
2021/05/19 04:02:23;;;;;;;6.40;3.05;;;;;;;23.21;28.94;94212.94;5094970;28;20063;-40
2021/05/19 04:04:50;;;;;;;6.10;3.28;;;;;;;23.97;28.41;94213.06;5092561;28;20043;-40
2021/05/19 04:07:17;;;;;;;4.80;3.00;;;;;;;24.58;27.34;94216.75;5084432;28;20044;-40
2021/05/19 04:09:44;;;;;;;9.95;3.30;;;;;;;23.73;29.07;94219.03;5090550;28;20048;-51
2021/05/19 04:12:12;;;;;;;5.63;2.70;;;;;;;24.71;27.61;94219.03;5094698;28;20040;-43
2021/05/19 04:14:39;;;;;;;6.28;3.42;;;;;;;24.96;27.18;94213.75;5091086;28;20474;-46
2021/05/19 04:17:06;;;;;;;6.68;2.97;;;;;;;23.98;28.17;94221.84;5074600;28;20067;-43
2021/05/19 04:19:33;;;;;;;8.15;3.47;;;;;;;22.61;30.58;94226.44;5076862;28;20447;-53
2021/05/19 04:22:01;;;;;;;8.18;3.20;;;;;;;22.43;31.11;94222.84;5089073;28;20050;-43
2021/05/19 04:37:26;;;;;;;6.53;3.33;;;;;;;18.90;39.51;94236.97;5090176;27;20360;-42
2021/05/19 04:39:54;;;;;;;8.65;4.00;;;;;;;23.67;30.40;94234.63;5066977;28;20736;-44
2021/05/19 04:42:21;;;;;;;7.43;3.13;;;;;;;24.76;27.78;94240.84;5063556;28;20049;-45
2021/05/19 04:44:48;;;;;;;8.13;3.28;;;;;;;21.66;32.86;94236.69;5058803;28;20040;-43
2021/05/19 04:47:15;;;;;;;10.10;3.55;;;;;;;25.83;26.86;94222.16;5053267;28;20049;-48
2021/05/19 04:49:42;;;;;;;8.88;3.40;;;;;;;22.15;32.14;94228.63;5052756;28;20052;-49
2021/05/19 04:52:10;;;;;;;9.20;3.40;;;;;;;25.63;26.42;94218.34;5071328;28;20051;-45
2021/05/19 04:54:37;;;;;;;6.05;3.35;;;;;;;30.19;20.57;94214.53;5055788;28;20371;-52
2021/05/19 04:57:05;;;;;;;8.00;2.85;;;;;;;32.11;18.21;94220.97;5051277;28;20471;-52
2021/05/19 04:59:32;;;;;;;9.48;3.83;;;;;;;32.51;17.39;94210.59;5067052;28;20068;-55
2021/05/19 05:01:59;;;;;;;6.03;2.80;;;;;;;32.19;17.59;94200.66;5061879;28;20041;-57
2021/05/19 05:04:27;;;;;;;6.63;2.63;;;;;;;32.45;17.51;94199.56;5054935;28;20052;-56
2021/05/19 05:06:54;;;;;;;6.70;2.90;;;;;;;32.59;17.75;94211.91;5070776;28;20055;-61
2021/05/19 05:09:21;;;;;;;5.82;2.88;;;;;;;31.92;18.57;94198.28;5070720;28;20057;-58
2021/05/19 05:11:48;;;;;;;7.28;2.80;;;;;;;32.45;18.09;94194.13;5070677;28;20041;-59
2021/05/19 05:14:15;;;;;;;7.10;3.10;;;;;;;32.61;18.01;94203.38;5066249;28;20048;-57
2021/05/19 05:16:42;;;;;;;7.63;3.70;;;;;;;32.50;18.12;94198.25;5070690;28;20056;-59
2021/05/19 05:19:09;;;;;;;4.47;2.63;;;;;;;32.40;18.21;94200.09;5070944;28;20070;-57
2021/05/19 05:21:37;;;;;;;4.63;2.50;;;;;;;33.01;16.88;94199.06;5070773;28;20510;-61
2021/05/19 05:24:04;;;;;;;6.43;2.63;;;;;;;33.29;16.53;94202.81;5064299;28;20040;-57
2021/05/19 05:26:32;;;;;;;5.00;2.50;;;;;;;32.88;16.57;94214.56;5070600;28;20044;-58
2021/05/19 05:28:59;;;;;;;9.52;2.63;;;;;;;33.21;16.74;94217.03;5070784;28;20068;-56
2021/05/19 05:31:26;;;;;;;3.80;2.53;;;;;;;32.89;16.72;94213.38;5060219;28;20079;-61
2021/05/19 05:33:53;;;;;;;4.90;3.00;;;;;;;33.13;16.89;94221.94;5053452;28;20388;-57
2021/05/19 05:36:20;;;;;;;4.68;3.17;;;;;;;33.59;15.85;94220.50;5069894;28;20435;-55
2021/05/19 05:38:47;;;;;;;8.32;3.05;;;;;;;33.69;16.01;94230.19;5069920;28;20061;-56
2021/05/19 05:41:15;;;;;;;5.57;3.40;;;;;;;32.84;16.91;94224.75;5070484;28;20067;-55
2021/05/19 05:43:42;;;;;;;6.63;4.00;;;;;;;33.33;17.15;94229.84;5069877;28;20336;-60
2021/05/19 05:46:09;;;;;;;7.55;3.83;;;;;;;33.43;17.34;94223.31;5068685;28;20052;-55
2021/05/19 05:48:36;;;;;;;8.30;4.25;;;;;;;32.91;17.46;94229.94;5058017;28;20060;-57
2021/05/19 05:51:03;;;;;;;7.05;4.10;;;;;;;33.64;16.75;94221.88;5057005;28;20375;-56
2021/05/19 05:53:30;;;;;;;10.15;4.40;;;;;;;33.51;16.69;94208.34;5057082;28;20352;-59
2021/05/19 05:55:58;;;;;;;6.43;3.75;;;;;;;33.25;17.19;94217.69;5056275;28;20044;-54
2021/05/19 05:58:25;;;;;;;5.05;2.97;;;;;;;33.44;16.58;94214.00;5057102;28;20048;-58
2021/05/19 06:00:52;;;;;;;8.60;2.92;;;;;;;33.67;16.88;94216.34;5056644;28;20060;-56
2021/05/19 06:03:19;;;;;;;10.60;2.60;;;;;;;33.81;15.93;94203.47;5052382;28;20049;-56
2021/05/19 06:05:46;;;;;;;7.65;2.80;;;;;;;34.79;15.22;94203.88;5053558;28;20052;-56
2021/05/19 06:08:14;;;;;;;5.03;2.95;;;;;;;34.39;15.34;94200.38;5056597;28;20056;-56
2021/05/19 06:10:41;;;;;;;5.40;3.03;;;;;;;34.24;16.06;94208.97;5056016;28;20056;-53
2021/05/19 06:13:08;;;;;;;4.68;3.38;;;;;;;34.83;14.94;94204.50;5055990;28;20061;-54
2021/05/19 06:15:35;;;;;;;5.90;3.80;;;;;;;34.41;15.58;94206.09;5051857;28;20474;-55
2021/05/19 06:18:05;;;;;;;5.18;3.20;;;;;;;34.37;15.40;94200.06;5056585;28;20383;-57
2021/05/19 06:20:32;;;;;;;7.53;3.40;;;;;;;34.21;15.87;94196.31;5056590;28;20053;-56
2021/05/19 06:22:59;;;;;;;8.63;3.15;;;;;;;34.80;14.82;94199.97;5056374;28;20045;-59
2021/05/19 06:25:27;;;;;;;9.77;3.58;;;;;;;34.04;16.20;94197.69;5055862;28;20048;-58
2021/05/19 06:27:54;;;;;;;8.27;4.07;;;;;;;34.38;16.47;94201.56;5056585;28;20053;-55
2021/05/19 06:30:21;;;;;;;8.95;4.00;;;;;;;34.45;15.78;94202.06;5056306;28;20124;-57
2021/05/19 06:32:49;;;;;;;9.57;4.20;;;;;;;34.52;16.26;94201.03;5056121;28;20676;-56
2021/05/19 06:35:16;;;;;;;17.10;4.53;;;;;;;34.58;15.75;94200.00;5055439;28;20060;-55
2021/05/19 06:37:43;;;;;;;11.57;4.20;;;;;;;34.91;15.17;94194.91;5056142;28;20064;-55
2021/05/19 06:40:11;;;;;;;10.50;3.95;;;;;;;34.62;15.21;94199.91;5056028;28;20044;-57
2021/05/19 06:42:39;;;;;;;9.85;3.50;;;;;;;34.88;15.64;94187.66;5055807;28;20059;-53
2021/05/19 06:45:06;;;;;;;5.25;3.40;;;;;;;34.37;15.45;94178.34;5055452;28;20048;-57
2021/05/19 06:47:34;;;;;;;7.30;3.85;;;;;;;34.81;15.39;94173.56;5056141;28;20641;-57
2021/05/19 06:50:02;;;;;;;8.52;4.22;;;;;;;34.93;15.10;94178.94;5056069;28;20041;-55
2021/05/19 06:52:29;;;;;;;5.55;3.35;;;;;;;34.62;15.15;94183.59;5055841;28;20716;-55
2021/05/19 06:54:57;;;;;;;9.38;4.43;;;;;;;34.57;15.17;94176.03;5055028;28;20059;-56
2021/05/19 06:57:24;;;;;;;5.75;4.07;;;;;;;35.37;14.33;94165.16;5055841;28;20041;-55
2021/05/19 06:59:51;;;;;;;12.00;5.35;;;;;;;34.70;15.00;94157.69;5054931;28;20040;-55
2021/05/19 07:02:18;;;;;;;9.30;5.63;;;;;;;34.60;15.80;94153.41;5055690;28;20367;-58
2021/05/19 07:04:45;;;;;;;8.70;5.07;;;;;;;34.77;15.33;94152.00;5054644;28;20053;-57
2021/05/19 07:07:13;;;;;;;7.63;4.82;;;;;;;34.36;15.75;94155.13;5055365;28;20052;-55
2021/05/19 07:09:41;;;;;;;7.40;4.50;;;;;;;34.18;15.76;94161.94;5055142;28;20044;-57
2021/05/19 07:12:08;;;;;;;7.55;4.45;;;;;;;34.26;16.30;94163.16;5055540;28;20060;-56
2021/05/19 07:14:44;;;;;;;9.48;4.50;;;;;;;34.91;15.35;94165.06;5054295;28;20068;-55
2021/05/19 07:17:11;;;;;;;13.63;4.55;;;;;;;34.85;15.42;94164.09;5055366;28;20065;-55
2021/05/19 07:19:38;;;;;;;9.32;3.67;;;;;;;34.60;15.41;94145.28;5054413;28;20053;-59
2021/05/19 07:22:05;;;;;;;11.75;3.70;;;;;;;34.83;15.08;94144.75;5054270;28;20367;-58
2021/05/19 07:24:32;;;;;;;9.02;3.60;;;;;;;35.03;14.92;94135.50;5055106;28;20329;-59
2021/05/19 07:27:07;;;;;;;8.25;3.35;;;;;;;34.98;14.37;94133.38;5053087;28;20037;-57
2021/05/19 07:29:35;;;;;;;5.88;3.80;;;;;;;34.99;14.68;94132.19;5050736;28;20423;-63
2021/05/19 07:32:02;;;;;;;5.93;3.85;;;;;;;34.99;14.87;94124.03;5055207;28;20041;-59
2021/05/19 07:34:29;;;;;;;10.27;3.55;;;;;;;34.34;15.29;94114.84;5054992;28;20045;-56
2021/05/19 07:37:09;;;;;;;6.22;3.10;;;;;;;34.75;15.09;94115.63;5054735;28;20053;-57
2021/05/19 07:39:36;;;;;;;8.75;5.47;;;;;;;35.32;15.00;94108.69;5054999;28;20075;-54
2021/05/19 07:42:04;;;;;;;7.88;4.32;;;;;;;35.77;14.14;94104.50;5054980;28;20047;-57
2021/05/19 07:44:31;;;;;;;7.30;3.67;;;;;;;35.24;14.81;94115.63;5054700;28;20471;-55
2021/05/19 07:46:58;;;;;;;5.50;3.40;;;;;;;35.77;14.36;94110.69;5054495;28;20518;-55
2021/05/19 07:49:26;;;;;;;8.60;3.00;;;;;;;35.67;14.51;94105.72;5055079;28;20557;-56
2021/05/19 07:51:53;;;;;;;8.88;3.10;;;;;;;36.26;14.12;94089.94;5054621;28;20051;-63
2021/05/19 07:54:26;;;;;;;9.25;3.67;;;;;;;35.82;14.83;94084.84;5043810;28;20063;-56
2021/05/19 07:59:24;;;;;;;7.30;4.30;;;;;;;36.11;14.20;94089.81;5054810;28;20048;-56
2021/05/19 08:02:08;;;;;;;6.57;5.00;;;;;;;36.01;15.67;94080.91;5054535;28;20048;-60
2021/05/19 08:04:36;;;;;;;13.65;11.75;;;;;;;36.58;14.30;94089.22;5054452;28;20060;-60
2021/05/19 08:07:05;;;;;;;8.30;4.85;;;;;;;36.25;14.64;94093.88;5053406;28;20052;-56
2021/05/19 08:09:33;;;;;;;10.23;3.85;;;;;;;36.01;14.74;94099.97;5054230;28;20044;-55
2021/05/19 08:12:01;;;;;;;8.88;3.78;;;;;;;36.38;14.09;94091.72;5053942;28;20052;-57
2021/05/19 08:14:32;;;;;;;8.95;3.90;;;;;;;36.69;14.95;94084.00;5054318;28;20052;-57
2021/05/19 08:16:59;;;;;;;8.45;3.60;;;;;;;36.87;14.93;94094.09;5054177;28;20080;-58
2021/05/19 08:19:26;;;;;;;10.73;3.28;;;;;;;36.34;14.88;94093.84;5054550;28;20052;-56
2021/05/19 08:21:54;;;;;;;6.60;3.33;;;;;;;36.44;13.96;94106.22;5054189;28;20071;-54
2021/05/19 08:24:21;;;;;;;7.68;3.50;;;;;;;36.85;13.78;94090.31;5054499;28;20048;-60
2021/05/19 08:26:48;;;;;;;18.40;6.95;;;;;;;37.14;13.54;94089.69;5052838;28;20049;-58
2021/05/19 08:29:25;;;;;;;8.35;3.67;;;;;;;37.15;13.48;94086.50;5054447;28;20041;-55
2021/05/19 08:31:52;;;;;;;8.27;5.18;;;;;;;36.49;15.03;94075.66;5053959;28;20049;-55
2021/05/19 08:34:19;;;;;;;7.25;4.30;;;;;;;37.24;14.14;94067.38;5070279;28;20045;-57
2021/05/19 08:36:46;;;;;;;6.78;3.60;;;;;;;37.31;14.19;94061.59;5053175;28;20060;-64
2021/05/19 08:39:13;;;;;;;9.13;3.33;;;;;;;37.58;13.71;94054.41;5053829;28;20455;-56
2021/05/19 08:41:45;;;;;;;6.30;3.70;;;;;;;37.29;14.07;94057.84;5053899;28;20053;-56
2021/05/19 08:44:13;;;;;;;7.22;3.42;;;;;;;37.67;12.81;94059.78;5037567;28;20052;-53
2021/05/19 08:46:48;;;;;;;6.75;3.05;;;;;;;37.45;13.61;94053.91;5046230;28;20436;-55
2021/05/19 08:49:16;;;;;;;7.75;3.00;;;;;;;37.42;12.43;94063.03;5034472;28;20125;-54
2021/05/19 08:51:44;;;;;;;6.13;2.53;;;;;;;38.07;13.00;94053.06;5049043;28;20057;-58
2021/05/19 08:54:12;;;;;;;8.20;2.55;;;;;;;37.68;12.97;94055.84;5054155;28;20048;-56
2021/05/19 08:56:45;;;;;;;12.18;3.05;;;;;;;37.57;13.67;94061.09;5053486;28;20056;-57
2021/05/19 08:59:12;;;;;;;8.18;2.63;;;;;;;38.14;12.92;94061.63;5053973;28;20049;-57
2021/05/19 09:01:42;;;;;;;10.15;3.15;;;;;;;37.60;13.13;94057.44;5053634;28;20048;-57
2021/05/19 09:04:19;;;;;;;5.15;2.65;;;;;;;37.58;13.53;94059.88;5054090;28;20474;-55
2021/05/19 09:06:58;;;;;;;6.63;3.97;;;;;;;37.82;12.63;94055.13;5053483;28;20049;-57
2021/05/19 09:09:36;;;;;;;3.75;2.70;;;;;;;37.61;12.99;94053.47;5053550;28;20064;-57
2021/05/19 09:12:08;;;;;;;10.85;6.70;;;;;;;37.17;12.49;94045.94;5053688;28;20371;-53
2021/05/19 09:15:03;;;;;;;7.32;5.65;;;;;;;37.50;12.80;94036.94;5053900;28;20360;-55
2021/05/19 09:17:33;;;;;;;6.78;3.78;;;;;;;37.56;13.03;94037.78;5053298;28;20053;-55
2021/05/19 09:20:01;;;;;;;10.02;4.18;;;;;;;37.81;12.40;94042.72;5053343;28;20048;-61
2021/05/19 09:22:32;;;;;;;7.13;3.30;;;;;;;37.94;11.95;94026.06;5054397;28;20045;-54
2021/05/19 09:25:02;;;;;;;5.97;3.65;;;;;;;38.09;12.75;94034.25;5055518;28;20060;-55
2021/05/19 09:27:49;;;;;;;6.75;3.78;;;;;;;37.81;14.04;94028.31;5053955;28;20045;-54
2021/05/19 09:30:33;;;;;;;5.15;3.25;;;;;;;38.27;14.34;94039.53;5057424;28;20053;-57
2021/05/19 09:33:18;;;;;;;6.90;2.63;;;;;;;37.81;13.09;94031.81;5057204;28;20048;-55
2021/05/19 09:35:47;;;;;;;7.72;3.55;;;;;;;38.23;13.15;94034.25;5057140;28;20048;-54
2021/05/19 09:38:30;;;;;;;8.77;3.10;;;;;;;38.45;12.62;94022.91;5056867;28;20049;-56
2021/05/19 09:41:24;;;;;;;9.65;6.32;;;;;;;37.82;12.93;94019.69;5056899;28;20041;-55
2021/05/19 09:43:55;;;;;;;9.02;5.53;;;;;;;38.55;11.85;94024.31;5058039;28;20051;-59
2021/05/19 09:49:19;;;;;;;6.25;3.65;;;;;;;38.08;12.02;94010.91;5057261;28;20060;-55
2021/05/19 09:51:57;;;;;;;8.90;6.57;;;;;;;38.47;12.17;94015.00;5056487;28;20053;-54
2021/05/19 09:54:39;;;;;;;6.40;4.38;;;;;;;37.91;12.33;94016.84;5056226;28;20053;-57
2021/05/19 09:57:09;;;;;;;7.03;3.75;;;;;;;38.01;12.27;94014.03;5056839;28;20052;-54
2021/05/19 09:59:37;;;;;;;32.05;22.95;;;;;;;37.57;12.92;94015.50;5057073;28;20455;-53
2021/05/19 10:02:05;;;;;;;6.90;5.28;;;;;;;38.33;12.16;94004.88;5055372;28;20052;-54
2021/05/19 10:04:42;;;;;;;10.23;3.92;;;;;;;37.96;12.80;93999.81;5056989;28;20056;-59
2021/05/19 10:07:15;;;;;;;6.88;3.67;;;;;;;38.39;12.34;93992.06;5056659;28;20123;-53
2021/05/19 10:09:42;;;;;;;7.15;3.38;;;;;;;38.34;12.39;93990.00;5056483;28;20056;-53
2021/05/19 10:12:10;;;;;;;5.20;2.70;;;;;;;37.92;12.16;93996.53;5056107;28;20049;-53
2021/05/19 10:14:37;;;;;;;5.30;2.78;;;;;;;37.48;12.95;93990.31;5055705;28;20075;-54
2021/05/19 10:17:05;;;;;;;4.93;2.90;;;;;;;38.34;11.99;93981.06;5056314;28;20064;-55
2021/05/19 10:19:39;;;;;;;5.80;3.03;;;;;;;37.71;12.13;93961.44;5056710;28;20041;-54
2021/05/19 10:22:12;;;;;;;6.25;3.22;;;;;;;37.57;12.27;93968.41;5050559;28;20057;-55
2021/05/19 10:24:49;;;;;;;14.73;10.18;;;;;;;37.90;12.61;93968.97;5056588;28;20051;-53
2021/05/19 10:27:19;;;;;;;7.72;3.55;;;;;;;38.38;11.90;93963.25;5056299;28;20436;-52
2021/05/19 10:29:49;;;;;;;8.57;3.50;;;;;;;37.91;12.27;93948.66;5056499;28;20440;-55
2021/05/19 10:32:22;;;;;;;5.93;3.33;;;;;;;37.54;12.31;93948.28;5055899;28;20048;-55
2021/05/19 10:34:58;;;;;;;6.35;2.60;;;;;;;37.82;12.28;93962.41;5056258;28;20048;-59
2021/05/19 10:37:31;;;;;;;7.32;2.75;;;;;;;37.73;13.43;93948.84;5055347;28;20045;-53
2021/05/19 10:40:07;;;;;;;5.30;2.40;;;;;;;37.93;12.83;93924.38;5055585;28;20355;-56
2021/05/19 10:42:41;;;;;;;4.70;2.28;;;;;;;38.30;12.57;93936.84;5055795;28;20044;-55
2021/05/19 10:45:15;;;;;;;5.88;2.17;;;;;;;38.04;11.93;93936.69;5056269;28;20337;-54
2021/05/19 10:47:44;;;;;;;5.85;2.50;;;;;;;37.89;11.77;93918.38;5055840;28;20367;-57
2021/05/19 10:50:51;;;;;;;4.00;1.85;;;;;;;37.50;12.33;93919.72;5055870;28;20053;-55
2021/05/19 10:59:05;;;;;;;3.47;1.85;;;;;;;38.29;11.46;93906.06;5073293;28;20056;-54
2021/05/19 11:01:38;;;;;;;4.00;1.70;;;;;;;38.27;11.69;93908.53;5050836;28;20060;-55
2021/05/19 11:04:22;;;;;;;6.88;2.40;;;;;;;38.52;11.58;93918.78;5055229;28;20478;-55
2021/05/19 11:07:01;;;;;;;5.82;1.92;;;;;;;38.96;11.55;93917.81;5054740;28;20049;-55
2021/05/19 11:09:34;;;;;;;5.47;2.05;;;;;;;38.81;11.50;93906.25;5055140;28;20052;-59
2021/05/19 11:12:24;;;;;;;4.70;1.50;;;;;;;38.65;11.21;93904.81;5055294;28;20128;-54
2021/05/19 11:15:01;;;;;;;4.80;1.60;;;;;;;39.08;10.87;93896.84;5055464;28;20056;-60
2021/05/19 11:20:03;;;;;;;4.68;1.95;;;;;;;39.01;10.99;93881.59;5055612;28;20049;-53
2021/05/19 11:22:30;;;;;;;4.07;1.40;;;;;;;39.28;11.37;93874.16;5054881;28;20475;-53
2021/05/19 11:25:01;;;;;;;4.97;1.80;;;;;;;38.91;11.44;93883.00;5055298;28;20055;-54
2021/05/19 11:27:31;;;;;;;3.55;1.63;;;;;;;39.13;10.65;93894.19;5055142;28;20471;-54
2021/05/19 11:29:59;;;;;;;5.32;1.52;;;;;;;38.89;8.41;93882.72;5055463;28;20044;-54
2021/05/19 11:32:30;;;;;;;3.33;0.90;;;;;;;39.14;8.60;93873.81;5054661;28;20048;-55
2021/05/19 11:35:18;;;;;;;2.50;1.10;;;;;;;38.85;8.27;93860.34;5036546;28;20048;-55
2021/05/19 11:38:02;;;;;;;5.07;1.20;;;;;;;39.38;8.93;93848.19;5052461;28;20399;-58
2021/05/19 11:40:42;;;;;;;2.78;1.38;;;;;;;39.66;10.06;93856.63;5054918;28;20045;-59
2021/05/19 11:43:10;;;;;;;3.15;1.33;;;;;;;39.11;10.25;93857.63;5054558;28;20367;-56
2021/05/19 11:45:40;;;;;;;3.10;1.48;;;;;;;39.18;10.77;93846.25;5054576;28;20478;-55
2021/05/19 11:48:28;;;;;;;3.95;1.40;;;;;;;39.28;10.00;93838.63;5037460;28;20363;-54
2021/05/19 11:50:56;;;;;;;3.38;1.27;;;;;;;39.67;9.18;93842.44;5054711;28;20057;-54
2021/05/19 11:53:24;;;;;;;3.22;1.20;;;;;;;38.78;10.61;93841.66;5054380;28;20324;-55
2021/05/19 11:55:52;;;;;;;4.05;1.38;;;;;;;39.52;9.86;93832.88;5054913;28;20059;-55
2021/05/19 11:58:32;;;;;;;3.38;0.90;;;;;;;39.41;8.94;93831.56;5053494;28;20056;-54
2021/05/19 12:01:07;;;;;;;2.47;1.02;;;;;;;39.58;8.65;93814.56;5054753;28;20056;-54
2021/05/19 12:03:38;;;;;;;3.42;1.02;;;;;;;39.74;8.33;93820.13;5054242;28;20041;-53
2021/05/19 12:06:06;;;;;;;1.85;0.85;;;;;;;39.60;8.12;93826.50;5054570;28;20051;-54
2021/05/19 12:08:39;;;;;;;2.35;0.90;;;;;;;39.82;8.01;93825.13;5053864;28;20444;-53
2021/05/19 12:11:10;;;;;;;4.82;1.00;;;;;;;39.95;8.14;93820.03;5041845;28;20054;-54
2021/05/19 12:13:40;;;;;;;2.10;0.85;;;;;;;39.92;8.98;93813.50;5047882;28;20048;-55
2021/05/19 12:16:09;;;;;;;2.42;1.25;;;;;;;40.66;7.46;93807.13;5054552;28;20048;-58